createdAt,value
2018-06-14T00:01:33.169Z,10.48
2018-06-14T00:04:02.711Z,13.33
2018-06-14T00:06:32.238Z,9.07
2018-06-14T00:09:01.785Z,10.80
2018-06-14T00:11:31.240Z,13.40
2018-06-14T00:14:00.728Z,9.40
2018-06-14T00:16:30.314Z,9.75
2018-06-14T00:18:59.778Z,10.07
2018-06-14T00:21:29.311Z,8.13
2018-06-14T00:23:58.821Z,8.40
2018-06-14T00:26:28.287Z,9.65
2018-06-14T00:28:57.772Z,8.60
2018-06-14T00:31:27.291Z,9.93
2018-06-14T00:33:56.775Z,9.13
2018-06-14T00:36:26.251Z,9.50
2018-06-14T00:38:55.739Z,9.98
2018-06-14T00:41:25.362Z,9.10
2018-06-14T00:43:54.841Z,13.07
2018-06-14T00:46:24.337Z,10.50
2018-06-14T00:48:53.827Z,8.70
2018-06-14T00:51:23.327Z,7.37
2018-06-14T00:53:52.811Z,8.73
2018-06-14T00:56:22.362Z,8.23
2018-06-14T00:58:51.867Z,9.18
2018-06-14T01:01:21.428Z,7.60
2018-06-14T01:03:50.892Z,7.63
2018-06-14T01:06:20.384Z,8.87
2018-06-14T01:08:49.842Z,6.85
2018-06-14T01:11:19.307Z,8.95
2018-06-14T01:13:48.776Z,7.20
2018-06-14T01:16:18.246Z,12.15
2018-06-14T01:18:47.747Z,7.73
2018-06-14T01:21:17.224Z,7.75
2018-06-14T01:23:46.692Z,8.15
2018-06-14T01:26:16.157Z,8.78
2018-06-14T01:28:45.651Z,7.40
2018-06-14T01:31:15.167Z,7.00
2018-06-14T01:33:44.667Z,10.17
2018-06-14T01:36:14.168Z,7.15
2018-06-14T01:38:43.653Z,9.33
2018-06-14T01:41:13.146Z,7.35
2018-06-14T01:43:42.621Z,8.43
2018-06-14T01:46:12.163Z,10.20
2018-06-14T01:48:42.038Z,6.22
2018-06-14T01:51:11.558Z,6.90
2018-06-14T01:53:40.996Z,6.67
2018-06-14T01:56:10.484Z,6.40
2018-06-14T01:58:39.963Z,10.53
2018-06-14T02:01:09.438Z,10.60
2018-06-14T02:03:38.948Z,7.80
2018-06-14T02:06:08.427Z,8.55
2018-06-14T02:08:37.907Z,6.97
2018-06-14T02:11:07.416Z,7.60
2018-06-14T02:13:36.934Z,6.65
2018-06-14T02:16:08.854Z,7.22
2018-06-14T02:18:39.831Z,6.70
2018-06-14T02:21:09.624Z,6.83
2018-06-14T02:23:39.088Z,6.58
2018-06-14T02:26:08.575Z,7.17
2018-06-14T02:28:38.043Z,7.62
2018-06-14T02:31:07.569Z,8.13
2018-06-14T02:33:37.028Z,8.83
2018-06-14T02:36:06.538Z,5.60
2018-06-14T02:38:36.071Z,6.62
2018-06-14T02:41:05.630Z,7.10
2018-06-14T02:43:35.138Z,6.67
2018-06-14T02:46:04.851Z,9.53
2018-06-14T02:48:34.337Z,6.87
2018-06-14T02:51:03.924Z,11.75
2018-06-14T02:53:33.402Z,6.55
2018-06-14T02:56:02.883Z,6.30
2018-06-14T02:58:32.376Z,6.85
2018-06-14T03:01:01.867Z,9.25
2018-06-14T03:03:31.367Z,10.20
2018-06-14T03:06:00.858Z,7.25
2018-06-14T03:08:30.447Z,6.70
2018-06-14T03:10:59.959Z,6.55
2018-06-14T03:13:29.429Z,7.83
2018-06-14T03:15:58.885Z,7.03
2018-06-14T03:18:28.313Z,8.10
2018-06-14T03:20:57.806Z,8.90
2018-06-14T03:23:27.305Z,7.33
2018-06-14T03:25:56.871Z,6.28
2018-06-14T03:28:26.364Z,6.03
2018-06-14T03:30:55.843Z,7.42
2018-06-14T03:33:25.386Z,7.37
2018-06-14T03:35:54.861Z,5.83
2018-06-14T03:38:25.220Z,8.05
2018-06-14T03:40:54.926Z,8.00
2018-06-14T03:43:24.515Z,7.72
2018-06-14T03:45:53.984Z,7.45
2018-06-14T03:48:23.450Z,5.73
2018-06-14T03:50:52.930Z,8.68
2018-06-14T03:53:22.408Z,7.60
2018-06-14T03:55:51.912Z,10.68
2018-06-14T03:58:21.494Z,5.92
2018-06-14T04:00:50.947Z,6.70
2018-06-14T04:03:20.428Z,8.40
2018-06-14T04:05:50.037Z,6.33
2018-06-14T04:08:19.510Z,7.25
2018-06-14T04:10:49.103Z,6.15
2018-06-14T04:13:18.593Z,6.65
2018-06-14T04:15:48.064Z,7.80
2018-06-14T04:18:18.114Z,8.03
2018-06-14T04:20:47.604Z,8.10
2018-06-14T04:23:17.114Z,8.83
2018-06-14T04:25:46.592Z,7.53
2018-06-14T04:28:16.016Z,9.40
2018-06-14T04:30:45.507Z,10.40
2018-06-14T04:33:15.014Z,7.27
2018-06-14T04:35:44.483Z,6.57
2018-06-14T04:38:13.977Z,9.30
2018-06-14T04:40:43.471Z,6.97
2018-06-14T04:43:12.971Z,9.20
2018-06-14T04:45:42.427Z,9.00
2018-06-14T04:48:11.963Z,7.70
2018-06-14T04:50:41.444Z,8.87
2018-06-14T04:53:10.931Z,7.30
2018-06-14T04:55:40.403Z,8.00
2018-06-14T04:58:09.883Z,8.40
2018-06-14T05:00:39.394Z,10.93
2018-06-14T05:03:08.876Z,7.23
2018-06-14T05:05:38.310Z,6.40
2018-06-14T05:08:07.817Z,8.60
2018-06-14T05:10:37.367Z,7.20
2018-06-14T05:13:06.894Z,6.97
2018-06-14T05:15:36.363Z,6.10
2018-06-14T05:18:05.973Z,6.60
2018-06-14T05:20:35.415Z,6.43
2018-06-14T05:23:04.932Z,9.70
2018-06-14T05:25:34.448Z,6.53
2018-06-14T05:28:03.916Z,6.77
2018-06-14T05:30:33.627Z,7.73
2018-06-14T05:33:03.085Z,6.70
2018-06-14T05:35:32.560Z,6.77
2018-06-14T05:38:02.060Z,7.23
2018-06-14T05:40:31.707Z,9.20
2018-06-14T05:43:01.302Z,6.80
2018-06-14T05:45:30.802Z,5.60
2018-06-14T05:48:00.271Z,6.37
2018-06-14T05:50:29.770Z,6.33
2018-06-14T05:52:59.237Z,5.43
2018-06-14T05:55:28.714Z,4.80
2018-06-14T05:57:58.207Z,5.40
2018-06-14T06:00:27.682Z,5.50
2018-06-14T06:02:57.199Z,4.87
2018-06-14T06:05:26.686Z,7.80
2018-06-14T06:07:56.255Z,5.47
2018-06-14T06:10:25.760Z,6.08
2018-06-14T06:12:55.341Z,6.40
2018-06-14T06:15:24.851Z,5.33
2018-06-14T06:17:54.327Z,5.50
2018-06-14T06:20:23.868Z,4.80
2018-06-14T06:22:53.467Z,6.67
2018-06-14T06:25:22.999Z,8.60
2018-06-14T06:27:52.539Z,5.43
2018-06-14T06:30:22.006Z,6.30
2018-06-14T06:32:51.524Z,4.87
2018-06-14T06:35:20.987Z,5.20
2018-06-14T06:37:50.499Z,4.83
2018-06-14T06:40:20.007Z,4.37
2018-06-14T06:42:49.499Z,4.17
2018-06-14T06:45:19.060Z,4.10
2018-06-14T06:47:48.562Z,3.40
2018-06-14T06:50:18.060Z,3.67
2018-06-14T06:52:47.641Z,4.80
2018-06-14T06:55:17.142Z,5.10
2018-06-14T06:57:46.679Z,3.30
2018-06-14T07:00:16.258Z,4.23
2018-06-14T07:02:45.772Z,3.90
2018-06-14T07:05:15.311Z,5.37
2018-06-14T07:07:44.800Z,3.70
2018-06-14T07:10:14.337Z,3.03
2018-06-14T07:12:43.935Z,4.80
2018-06-14T07:15:13.424Z,5.03
2018-06-14T07:17:42.959Z,3.30
2018-06-14T07:20:12.513Z,3.47
2018-06-14T07:22:42.011Z,3.63
2018-06-14T07:25:11.501Z,3.20
2018-06-14T07:27:41.007Z,3.80
2018-06-14T07:30:10.506Z,5.27
2018-06-14T07:32:40.013Z,3.73
2018-06-14T07:35:09.567Z,5.93
2018-06-14T07:37:39.091Z,4.50
2018-06-14T07:40:08.675Z,4.00
2018-06-14T07:42:38.195Z,4.63
2018-06-14T07:45:07.673Z,3.80
2018-06-14T07:47:37.173Z,3.50
2018-06-14T07:50:06.697Z,5.10
2018-06-14T07:52:36.188Z,4.87
2018-06-14T07:55:05.848Z,4.57
2018-06-14T07:57:35.316Z,3.57
2018-06-14T08:00:04.967Z,4.87
2018-06-14T08:02:34.477Z,2.77
2018-06-14T08:05:04.025Z,3.53
2018-06-14T08:07:33.503Z,3.10
2018-06-14T08:10:03.070Z,2.80
2018-06-14T08:12:32.612Z,4.67
2018-06-14T08:15:02.187Z,2.60
2018-06-14T08:17:31.691Z,2.57
2018-06-14T08:20:01.276Z,3.07
2018-06-14T08:22:30.783Z,3.00
2018-06-14T08:25:00.264Z,2.73
2018-06-14T08:27:29.735Z,4.80
2018-06-14T08:29:59.290Z,3.67
2018-06-14T08:32:28.761Z,5.47
2018-06-14T08:34:58.242Z,4.20
2018-06-14T08:37:29.547Z,2.43
2018-06-14T08:39:59.377Z,3.00
2018-06-14T08:42:28.886Z,2.03
2018-06-14T08:44:58.383Z,5.20
2018-06-14T08:47:27.966Z,4.03
2018-06-14T08:49:57.479Z,3.37
2018-06-14T08:52:26.955Z,2.70
2018-06-14T08:54:56.483Z,3.40
2018-06-14T08:57:26.065Z,2.70
2018-06-14T08:59:55.577Z,4.00
2018-06-14T09:02:25.121Z,2.83
2018-06-14T09:04:54.640Z,3.07
2018-06-14T09:07:23.977Z,3.20
2018-06-14T09:09:53.296Z,3.33
2018-06-14T09:12:22.803Z,4.20
2018-06-14T09:14:52.324Z,3.33
2018-06-14T09:17:22.034Z,2.47
2018-06-14T09:19:51.540Z,2.80
2018-06-14T09:22:21.034Z,3.80
2018-06-14T09:24:50.495Z,2.77
2018-06-14T09:27:19.979Z,3.33
2018-06-14T09:29:49.521Z,3.27
2018-06-14T09:32:18.999Z,3.83
2018-06-14T09:34:48.552Z,3.33
2018-06-14T09:37:18.104Z,3.40
2018-06-14T09:39:47.603Z,7.63
2018-06-14T09:42:17.102Z,4.73
2018-06-14T09:44:46.309Z,4.37
2018-06-14T09:47:15.693Z,3.27
2018-06-14T09:49:45.217Z,4.33
2018-06-14T09:52:14.690Z,5.10
2018-06-14T09:54:44.207Z,3.93
2018-06-14T09:57:13.713Z,4.33
2018-06-14T09:59:43.180Z,3.00
2018-06-14T10:02:12.720Z,5.53
2018-06-14T10:04:42.269Z,3.20
2018-06-14T10:07:11.834Z,3.70
2018-06-14T10:09:41.359Z,6.70
2018-06-14T10:12:10.847Z,3.87
2018-06-14T10:14:40.340Z,3.60
2018-06-14T10:17:09.831Z,4.97
2018-06-14T10:19:39.318Z,3.10
2018-06-14T10:22:08.817Z,2.50
2018-06-14T10:24:38.387Z,2.83
2018-06-14T10:27:07.920Z,4.30
2018-06-14T10:29:37.430Z,2.60
2018-06-14T10:32:06.919Z,3.47
2018-06-14T10:34:36.407Z,2.97
2018-06-14T10:37:05.948Z,2.83
2018-06-14T10:39:35.439Z,2.57
2018-06-14T10:42:04.991Z,2.80
2018-06-14T10:44:34.462Z,4.13
2018-06-14T10:47:03.978Z,2.77
2018-06-14T10:49:33.475Z,2.97
2018-06-14T10:52:02.996Z,3.07
2018-06-14T10:54:32.590Z,4.07
2018-06-14T10:57:02.079Z,3.03
2018-06-14T10:59:31.573Z,2.87
2018-06-14T11:02:01.084Z,2.53
2018-06-14T11:04:30.549Z,3.70
2018-06-14T11:07:00.078Z,3.00
2018-06-14T11:09:29.567Z,3.47
2018-06-14T11:11:59.169Z,4.00
2018-06-14T11:14:28.698Z,3.00
2018-06-14T11:16:58.234Z,3.40
2018-06-14T11:19:27.794Z,3.30
2018-06-14T11:21:57.305Z,3.77
2018-06-14T11:24:26.778Z,6.50
2018-06-14T11:26:56.471Z,4.90
2018-06-14T11:29:26.060Z,5.13
2018-06-14T11:31:55.616Z,3.20
2018-06-14T11:34:25.150Z,2.80
2018-06-14T11:36:54.888Z,3.17
2018-06-14T11:39:24.476Z,4.07
2018-06-14T11:41:54.000Z,3.00
2018-06-14T11:44:23.541Z,6.70
2018-06-14T11:46:53.757Z,3.33
2018-06-14T11:49:23.256Z,2.87
2018-06-14T11:51:52.776Z,4.13
2018-06-14T11:54:21.995Z,2.53
2018-06-14T11:56:51.683Z,4.00
2018-06-14T11:59:21.176Z,3.43
2018-06-14T12:01:50.719Z,5.17
2018-06-14T12:04:20.206Z,3.80
2018-06-14T12:06:49.754Z,6.27
2018-06-14T12:09:19.326Z,3.03
2018-06-14T12:11:48.848Z,3.10
2018-06-14T12:14:18.355Z,3.50
2018-06-14T12:16:47.576Z,4.20
2018-06-14T12:19:16.920Z,3.73
2018-06-14T12:21:46.445Z,2.87
2018-06-14T12:24:15.903Z,2.90
2018-06-14T12:26:45.492Z,4.23
2018-06-14T12:29:15.032Z,3.90
2018-06-14T12:31:44.601Z,3.23
2018-06-14T12:34:14.159Z,3.40
2018-06-14T12:36:43.704Z,3.63
2018-06-14T12:39:13.262Z,2.30
2018-06-14T12:41:42.758Z,3.87
2018-06-14T12:44:12.398Z,3.40
2018-06-14T12:46:41.903Z,4.43
2018-06-14T12:49:11.531Z,2.93
2018-06-14T12:51:41.072Z,4.83
2018-06-14T12:54:10.610Z,3.57
2018-06-14T12:56:40.189Z,4.20
2018-06-14T12:59:09.721Z,3.53
2018-06-14T13:01:39.301Z,3.00
2018-06-14T13:04:09.281Z,3.10
2018-06-14T13:06:38.795Z,3.13
2018-06-14T13:09:09.904Z,2.83
2018-06-14T13:11:39.485Z,3.07
2018-06-14T13:14:09.304Z,2.83
2018-06-14T13:16:38.542Z,3.20
2018-06-14T13:19:07.966Z,2.70
2018-06-14T13:21:37.516Z,3.00
2018-06-14T13:24:07.002Z,2.73
2018-06-14T13:26:36.548Z,3.93
2018-06-14T13:29:06.172Z,3.00
2018-06-14T13:31:35.902Z,2.42
2018-06-14T13:34:05.467Z,2.90
2018-06-14T13:36:35.284Z,3.57
2018-06-14T13:39:06.600Z,2.87
2018-06-14T13:41:36.155Z,3.43
2018-06-14T13:44:05.739Z,2.70
2018-06-14T13:46:39.606Z,3.67
2018-06-14T13:49:09.456Z,3.03
2018-06-14T13:51:39.036Z,3.80
2018-06-14T13:54:08.838Z,2.83
2018-06-14T13:56:38.568Z,3.87
2018-06-14T13:59:08.091Z,5.33
2018-06-14T14:01:37.695Z,2.30
2018-06-14T14:04:07.257Z,2.80
2018-06-14T14:06:36.837Z,2.40
2018-06-14T14:09:08.864Z,2.93
2018-06-14T14:11:38.390Z,2.73
2018-06-14T14:14:07.887Z,3.10
2018-06-14T14:16:37.472Z,3.73
2018-06-14T14:19:06.987Z,2.63
2018-06-14T14:21:36.552Z,3.30
2018-06-14T14:24:06.032Z,4.03
2018-06-14T14:26:35.586Z,2.77
2018-06-14T14:29:05.160Z,4.97
2018-06-14T14:31:34.790Z,3.63
2018-06-14T14:34:04.384Z,2.90
2018-06-14T14:36:33.885Z,2.40
2018-06-14T14:39:03.839Z,3.63
2018-06-14T14:41:33.450Z,3.00
2018-06-14T14:44:02.987Z,3.07
2018-06-14T14:46:32.499Z,3.07
2018-06-14T14:49:02.156Z,4.73
2018-06-14T14:51:31.685Z,3.60
2018-06-14T14:54:01.331Z,3.00
2018-06-14T14:56:31.186Z,2.50
2018-06-14T14:59:00.761Z,2.90
2018-06-14T15:01:30.271Z,4.97
2018-06-14T15:03:59.811Z,2.33
2018-06-14T15:06:29.431Z,3.30
2018-06-14T15:08:59.318Z,3.10
2018-06-14T15:11:28.849Z,2.87
2018-06-14T15:13:58.357Z,2.53
2018-06-14T15:16:27.943Z,4.50
2018-06-14T15:18:57.478Z,2.40
2018-06-14T15:21:27.269Z,3.30
2018-06-14T15:23:56.772Z,2.50
2018-06-14T15:26:26.398Z,2.57
2018-06-14T15:28:56.574Z,2.40
2018-06-14T15:31:26.120Z,5.10
2018-06-14T15:33:55.708Z,5.47
2018-06-14T15:36:25.270Z,2.50
2018-06-14T15:38:54.576Z,3.17
2018-06-14T15:41:24.023Z,1.70
2018-06-14T15:43:53.693Z,2.40
2018-06-14T15:46:22.951Z,2.70
2018-06-14T15:48:52.412Z,2.90
2018-06-14T15:51:21.972Z,2.13
2018-06-14T15:53:51.594Z,2.37
2018-06-14T15:56:32.225Z,2.47
2018-06-14T15:59:02.498Z,2.70
2018-06-14T16:01:32.055Z,2.70
2018-06-14T16:04:01.965Z,2.03
2018-06-14T16:06:31.567Z,2.10
2018-06-14T16:09:01.934Z,2.73
2018-06-14T16:11:31.470Z,2.13
2018-06-14T16:14:01.067Z,2.37
2018-06-14T16:16:30.602Z,3.30
2018-06-14T16:19:00.150Z,2.63
2018-06-14T16:21:29.685Z,3.30
2018-06-14T16:23:59.348Z,2.60
2018-06-14T16:26:28.931Z,2.03
2018-06-14T16:28:58.520Z,2.30
2018-06-14T16:31:28.196Z,2.70
2018-06-14T16:33:57.764Z,3.03
2018-06-14T16:36:27.404Z,2.53
2018-06-14T16:38:56.639Z,2.00
2018-06-14T16:41:26.189Z,3.70
2018-06-14T16:43:55.706Z,2.60
2018-06-14T16:46:25.263Z,3.77
2018-06-14T16:48:54.846Z,3.20
2018-06-14T16:51:24.368Z,2.73
2018-06-14T16:53:53.904Z,2.93
2018-06-14T16:56:23.467Z,5.80
2018-06-14T16:58:53.018Z,3.37
2018-06-14T17:01:22.756Z,3.00
2018-06-14T17:03:52.168Z,3.40
2018-06-14T17:06:21.713Z,3.13
2018-06-14T17:08:51.223Z,3.83
2018-06-14T17:11:20.787Z,2.03
2018-06-14T17:13:50.343Z,2.30
2018-06-14T17:16:19.894Z,2.73
2018-06-14T17:18:49.546Z,2.70
2018-06-14T17:21:19.123Z,2.83
2018-06-14T17:23:48.637Z,3.10
2018-06-14T17:26:18.214Z,3.47
2018-06-14T17:28:47.775Z,4.63
2018-06-14T17:31:17.302Z,2.20
2018-06-14T17:33:46.899Z,2.30
2018-06-14T17:36:16.519Z,2.70
2018-06-14T17:38:46.019Z,2.33
2018-06-14T17:41:15.723Z,3.87
2018-06-14T17:43:45.196Z,2.63
2018-06-14T17:46:14.720Z,2.67
2018-06-14T17:48:44.305Z,2.17
2018-06-14T17:51:14.180Z,6.80
2018-06-14T17:53:43.782Z,3.00
2018-06-14T17:56:13.616Z,2.80
2018-06-14T17:58:43.971Z,3.60
2018-06-14T18:01:13.580Z,3.40
2018-06-14T18:03:43.139Z,4.37
2018-06-14T18:06:12.695Z,2.10
2018-06-14T18:08:42.278Z,2.83
2018-06-14T18:11:11.857Z,2.43
2018-06-14T18:13:42.275Z,3.40
2018-06-14T18:16:11.832Z,2.30
2018-06-14T18:18:42.665Z,2.20
2018-06-14T18:21:12.200Z,2.53
2018-06-14T18:23:41.763Z,2.90
2018-06-14T18:26:11.344Z,2.60
2018-06-14T18:28:40.888Z,3.03
2018-06-14T18:31:10.515Z,2.33
2018-06-14T18:33:40.034Z,2.57
2018-06-14T18:36:09.724Z,2.60
2018-06-14T18:38:39.260Z,3.00
2018-06-14T18:41:08.888Z,2.00
2018-06-14T18:43:38.501Z,3.97
2018-06-14T18:46:08.077Z,2.33
2018-06-14T18:48:37.682Z,3.07
2018-06-14T18:51:07.235Z,6.17
2018-06-14T18:53:37.885Z,3.13
2018-06-14T18:56:07.584Z,2.67
2018-06-14T18:58:37.179Z,2.87
2018-06-14T19:01:06.766Z,2.90
2018-06-14T19:03:36.428Z,2.70
2018-06-14T19:06:06.010Z,2.80
2018-06-14T19:08:35.560Z,2.73
2018-06-14T19:11:05.255Z,2.77
2018-06-14T19:13:34.875Z,3.40
2018-06-14T19:16:04.492Z,2.60
2018-06-14T19:18:34.036Z,2.70
2018-06-14T19:21:03.816Z,4.03
2018-06-14T19:23:33.391Z,2.77
2018-06-14T19:26:03.017Z,4.50
2018-06-14T19:28:32.603Z,11.33
2018-06-14T19:31:02.222Z,2.80
2018-06-14T19:33:31.784Z,3.10
2018-06-14T19:36:01.395Z,3.30
2018-06-14T19:38:31.021Z,2.80
2018-06-14T19:41:00.568Z,2.80
2018-06-14T19:43:30.172Z,2.80
2018-06-14T19:45:59.773Z,6.43
2018-06-14T19:48:29.319Z,3.10
2018-06-14T19:50:58.943Z,3.13
2018-06-14T19:53:28.491Z,3.73
2018-06-14T19:55:58.229Z,6.57
2018-06-14T19:58:28.077Z,3.80
2018-06-14T20:00:57.659Z,4.73
2018-06-14T20:03:27.231Z,3.20
2018-06-14T20:05:56.780Z,4.27
2018-06-14T20:08:26.345Z,3.70
2018-06-14T20:10:55.992Z,3.33
2018-06-14T20:13:25.666Z,6.40
2018-06-14T20:15:55.223Z,3.97
2018-06-14T20:18:24.830Z,4.27
2018-06-14T20:20:54.480Z,6.07
2018-06-14T20:23:23.974Z,3.87
2018-06-14T20:25:54.453Z,5.20
2018-06-14T20:28:24.142Z,4.07
2018-06-14T20:30:53.470Z,4.00
2018-06-14T20:33:22.876Z,3.97
2018-06-14T20:35:52.476Z,5.30
2018-06-14T20:38:22.075Z,5.50
2018-06-14T20:40:51.704Z,6.17
2018-06-14T20:43:21.215Z,8.33
2018-06-14T20:45:50.855Z,10.40
2018-06-14T20:48:20.516Z,8.70
2018-06-14T20:50:50.076Z,8.80
2018-06-14T20:53:19.660Z,9.03
2018-06-14T20:55:49.223Z,7.67
2018-06-14T20:58:18.811Z,14.53
2018-06-14T21:00:48.545Z,5.63
2018-06-14T21:03:18.030Z,5.83
2018-06-14T21:05:47.627Z,6.03
2018-06-14T21:08:17.155Z,7.23
2018-06-14T21:10:46.725Z,6.47
2018-06-14T21:13:16.230Z,7.83
2018-06-14T21:15:46.254Z,6.23
2018-06-14T21:18:15.814Z,6.40
2018-06-14T21:20:45.340Z,8.13
2018-06-14T21:23:14.856Z,6.27
2018-06-14T21:25:44.361Z,6.00
2018-06-14T21:28:13.846Z,7.80
2018-06-14T21:30:43.391Z,7.13
2018-06-14T21:33:12.971Z,7.23
2018-06-14T21:35:42.476Z,8.33
2018-06-14T21:38:12.035Z,6.60
2018-06-14T21:40:41.602Z,6.43
2018-06-14T21:43:11.095Z,7.60
2018-06-14T21:45:40.600Z,4.87
2018-06-14T21:48:10.214Z,6.63
2018-06-14T21:50:39.749Z,6.70
2018-06-14T21:53:09.227Z,8.03
2018-06-14T21:55:38.768Z,4.83
2018-06-14T21:58:08.267Z,5.47
2018-06-14T22:00:37.879Z,4.73
2018-06-14T22:03:12.668Z,6.70
2018-06-14T22:05:42.238Z,5.50
2018-06-14T22:08:11.728Z,4.93
2018-06-14T22:10:41.260Z,5.53
2018-06-14T22:13:10.720Z,6.30
2018-06-14T22:15:40.248Z,5.43
2018-06-14T22:18:09.790Z,6.30
2018-06-14T22:20:39.289Z,10.53
2018-06-14T22:23:08.805Z,7.97
2018-06-14T22:25:38.266Z,6.10
2018-06-14T22:28:07.818Z,6.03
2018-06-14T22:30:37.991Z,5.40
2018-06-14T22:33:18.917Z,5.83
2018-06-14T22:35:48.403Z,6.00
2018-06-14T22:38:18.215Z,5.10
2018-06-14T22:40:47.861Z,5.60
2018-06-14T22:43:17.357Z,4.77
2018-06-14T22:45:46.931Z,4.90
2018-06-14T22:48:16.423Z,5.63
2018-06-14T22:50:57.271Z,4.57
2018-06-14T22:53:26.805Z,4.97
2018-06-14T22:55:56.306Z,4.97
2018-06-14T22:58:25.770Z,6.03
2018-06-14T23:01:50.223Z,5.23
2018-06-14T23:04:21.214Z,7.47
2018-06-14T23:06:50.812Z,8.30
2018-06-14T23:10:36.645Z,5.20
2018-06-14T23:13:07.023Z,4.63
2018-06-14T23:15:36.564Z,5.28
2018-06-14T23:18:06.006Z,5.10
2018-06-14T23:20:36.042Z,7.27
2018-06-14T23:23:06.368Z,4.78
2018-06-14T23:25:36.592Z,4.70
2018-06-14T23:28:06.134Z,4.47
2018-06-14T23:30:35.631Z,4.92
2018-06-14T23:33:05.127Z,4.20
2018-06-14T23:35:34.639Z,5.00
2018-06-14T23:38:04.300Z,5.55
2018-06-14T23:40:33.797Z,5.90
2018-06-14T23:43:03.321Z,4.62
2018-06-14T23:45:32.818Z,4.90
2018-06-14T23:48:02.295Z,5.40
2018-06-14T23:50:31.771Z,6.22
2018-06-14T23:53:01.313Z,4.70
2018-06-14T23:55:30.746Z,5.17
2018-06-14T23:58:00.211Z,4.30
